Time;durP1;ratioP1;P1;durP2;ratioP2;P2;SDS_P1;SDS_P2;PMS_P1;PMS_P2;Temp;Humidity;BMP_temperature;BMP_pressure;BME280_temperature;BME280_humidity;BME280_pressure;Samples;Min_cycle;Max_cycle;Signal;HPM_P1;HPM_P2
2023/01/07 00:01:28;;;;;;;53.65;29.75;;;9.60;99.90;;;;;;5024862;28;20042;-59
2023/01/07 00:03:56;;;;;;;49.45;27.70;;;9.70;99.90;;;;;;4974928;28;20104;-59
2023/01/07 00:06:25;;;;;;;48.65;27.30;;;9.70;99.90;;;;;;4975173;28;20548;-59
2023/01/07 00:08:52;;;;;;;53.97;28.70;;;9.70;99.90;;;;;;4962716;28;20452;-59
2023/01/07 00:11:20;;;;;;;57.85;27.90;;;9.70;99.90;;;;;;4974986;28;20125;-59
2023/01/07 00:13:51;;;;;;;51.25;27.67;;;9.70;99.90;;;;;;4974635;28;20713;-60
2023/01/07 00:16:19;;;;;;;48.55;27.65;;;9.80;99.90;;;;;;4941887;28;20043;-60
2023/01/07 00:18:45;;;;;;;51.95;28.27;;;9.80;99.90;;;;;;4986481;28;20097;-58
2023/01/07 00:21:13;;;;;;;49.17;27.55;;;9.80;99.90;;;;;;4982744;28;20050;-59
2023/01/07 00:23:41;;;;;;;50.33;28.42;;;9.80;99.90;;;;;;4958743;28;20104;-59
2023/01/07 00:26:13;;;;;;;58.00;30.05;;;9.90;99.90;;;;;;4982897;28;20050;-59
2023/01/07 00:28:40;;;;;;;52.60;27.30;;;9.90;99.90;;;;;;4975631;28;20382;-59
2023/01/07 00:31:11;;;;;;;49.80;27.15;;;9.90;99.90;;;;;;4981136;28;20049;-61
2023/01/07 00:33:47;;;;;;;47.97;26.95;;;10.00;99.90;;;;;;4996908;28;20100;-59
2023/01/07 00:36:13;;;;;;;47.38;27.45;;;10.00;99.90;;;;;;4978062;28;20489;-60
2023/01/07 00:38:39;;;;;;;51.90;28.27;;;10.00;99.90;;;;;;4979674;28;20110;-58
2023/01/07 00:41:05;;;;;;;47.20;27.65;;;10.00;99.90;;;;;;5010955;28;20038;-60
2023/01/07 00:43:31;;;;;;;50.78;26.77;;;10.00;99.90;;;;;;4977286;28;20082;-60
2023/01/07 00:45:57;;;;;;;51.58;27.65;;;10.00;99.90;;;;;;4979203;28;20043;-60
2023/01/07 00:48:23;;;;;;;47.78;26.90;;;10.10;99.90;;;;;;4982759;28;20397;-58
2023/01/07 00:50:50;;;;;;;52.53;28.23;;;10.20;99.90;;;;;;4976946;28;20525;-60
2023/01/07 00:53:17;;;;;;;50.05;26.45;;;10.20;99.90;;;;;;4981535;28;20056;-60
2023/01/07 00:55:43;;;;;;;48.95;26.77;;;10.20;99.90;;;;;;4966268;28;20053;-60
2023/01/07 00:58:19;;;;;;;41.88;25.15;;;10.20;99.90;;;;;;4984743;28;20057;-60
2023/01/07 01:00:44;;;;;;;41.28;25.65;;;10.30;99.90;;;;;;4982633;28;20044;-60
2023/01/07 01:03:11;;;;;;;42.25;24.90;;;10.30;99.90;;;;;;4985468;28;20038;-59
2023/01/07 01:05:38;;;;;;;45.08;25.83;;;10.40;99.90;;;;;;4981027;28;20038;-60
2023/01/07 01:08:04;;;;;;;42.38;26.25;;;10.50;99.90;;;;;;4972968;28;20053;-60
2023/01/07 01:10:30;;;;;;;44.28;27.25;;;10.50;99.90;;;;;;4959244;28;20043;-60
2023/01/07 01:12:56;;;;;;;41.60;25.90;;;10.50;99.90;;;;;;4960707;28;20266;-60
2023/01/07 01:15:21;;;;;;;43.60;28.33;;;10.60;99.90;;;;;;4951156;28;20109;-59
2023/01/07 01:17:49;;;;;;;43.47;26.85;;;10.60;99.90;;;;;;4980236;28;20038;-59
2023/01/07 01:20:15;;;;;;;41.13;26.65;;;10.60;99.90;;;;;;4980321;28;20038;-59
2023/01/07 01:22:42;;;;;;;40.08;25.80;;;10.60;99.90;;;;;;4985113;28;20087;-60
2023/01/07 01:25:09;;;;;;;40.53;26.85;;;10.70;99.90;;;;;;5021776;28;20070;-60
2023/01/07 01:27:34;;;;;;;39.65;26.85;;;10.70;99.90;;;;;;4979159;28;20180;-59
2023/01/07 01:30:01;;;;;;;41.08;26.88;;;10.70;99.90;;;;;;4961866;28;20153;-60
2023/01/07 01:32:27;;;;;;;45.17;28.58;;;10.70;99.90;;;;;;4978796;28;20513;-59
2023/01/07 01:34:53;;;;;;;41.10;27.48;;;10.70;99.90;;;;;;5006104;28;20134;-60
2023/01/07 01:37:18;;;;;;;36.40;26.77;;;10.70;99.90;;;;;;5014999;28;20471;-60
2023/01/07 01:39:44;;;;;;;36.08;26.25;;;10.70;99.90;;;;;;4981082;28;20097;-60
2023/01/07 01:42:20;;;;;;;40.83;27.45;;;10.70;99.90;;;;;;4985151;28;20108;-59
2023/01/07 01:44:49;;;;;;;33.47;25.48;;;10.70;99.90;;;;;;4956474;28;20128;-58
2023/01/07 01:47:20;;;;;;;34.42;25.55;;;10.70;99.90;;;;;;4962866;28;20134;-60
2023/01/07 01:50:03;;;;;;;34.88;25.80;;;10.70;99.90;;;;;;4977270;28;21746;-60
2023/01/07 01:52:38;;;;;;;34.33;25.67;;;10.80;99.90;;;;;;4980224;28;20461;-60
2023/01/07 01:55:07;;;;;;;33.55;25.75;;;10.80;99.90;;;;;;4995645;28;20074;-60
2023/01/07 01:57:35;;;;;;;35.58;26.73;;;10.70;99.90;;;;;;4983664;28;20054;-60
2023/01/07 02:00:03;;;;;;;32.42;24.25;;;10.80;99.90;;;;;;4984207;28;20054;-59
2023/01/07 02:02:38;;;;;;;30.95;24.50;;;10.80;99.90;;;;;;4989653;28;20039;-60
2023/01/07 02:05:05;;;;;;;36.25;26.13;;;10.80;99.90;;;;;;4978217;28;20046;-60
2023/01/07 02:07:31;;;;;;;30.23;24.10;;;10.70;99.90;;;;;;4996610;28;20046;-60
2023/01/07 02:10:00;;;;;;;29.85;24.30;;;10.80;99.90;;;;;;4997234;28;20521;-60
2023/01/07 02:12:37;;;;;;;34.03;24.63;;;10.80;99.90;;;;;;4983514;28;20046;-59
2023/01/07 02:15:10;;;;;;;32.53;26.23;;;10.70;99.90;;;;;;4999078;28;20041;-59
2023/01/07 02:17:42;;;;;;;30.10;23.27;;;10.70;99.90;;;;;;4984379;28;20038;-60
2023/01/07 02:20:33;;;;;;;31.15;25.08;;;10.80;99.90;;;;;;4976286;28;20038;-60
2023/01/07 02:23:24;;;;;;;30.63;23.95;;;10.70;99.90;;;;;;4980188;28;20050;-60
2023/01/07 02:26:05;;;;;;;29.27;22.90;;;10.70;99.90;;;;;;4987721;28;20057;-60
2023/01/07 02:28:54;;;;;;;34.22;25.38;;;10.70;99.90;;;;;;4981199;28;21037;-60
2023/01/07 02:31:40;;;;;;;29.42;23.13;;;10.80;99.90;;;;;;4993624;28;20045;-60
2023/01/07 02:34:33;;;;;;;29.35;22.33;;;10.70;99.90;;;;;;4999700;28;20050;-59
2023/01/07 02:37:09;;;;;;;29.98;23.40;;;10.80;99.90;;;;;;5002585;28;20050;-60
2023/01/07 02:39:47;;;;;;;29.13;23.17;;;10.70;99.90;;;;;;4979034;28;20506;-60
2023/01/07 02:42:16;;;;;;;29.92;22.63;;;10.70;99.90;;;;;;4974578;28;20524;-60
2023/01/07 02:44:48;;;;;;;31.60;22.95;;;10.70;99.90;;;;;;5003041;28;20066;-60
2023/01/07 02:47:25;;;;;;;27.58;23.63;;;10.70;99.90;;;;;;4995312;28;20046;-60
2023/01/07 02:49:51;;;;;;;27.35;21.67;;;10.80;99.90;;;;;;4978596;28;20053;-60
2023/01/07 02:52:24;;;;;;;29.40;23.08;;;10.80;99.90;;;;;;4983241;28;20076;-60
2023/01/07 02:55:11;;;;;;;26.00;22.70;;;10.80;99.90;;;;;;4987167;28;20113;-60
2023/01/07 02:57:42;;;;;;;27.40;21.70;;;10.80;99.90;;;;;;4981306;28;20456;-60
2023/01/07 03:00:14;;;;;;;26.92;20.33;;;10.80;99.90;;;;;;4984786;28;20053;-60
2023/01/07 03:03:17;;;;;;;25.63;21.35;;;10.80;99.90;;;;;;4974441;28;20364;-60
2023/01/07 03:06:08;;;;;;;26.20;21.20;;;10.80;99.90;;;;;;4977509;28;20129;-60
2023/01/07 03:08:43;;;;;;;27.98;20.52;;;10.80;99.90;;;;;;4981329;28;20509;-60
2023/01/07 03:11:10;;;;;;;24.23;20.48;;;10.80;99.90;;;;;;4969923;28;20041;-60
2023/01/07 03:14:07;;;;;;;26.73;21.13;;;10.80;99.90;;;;;;4983640;28;20049;-60
2023/01/07 03:16:41;;;;;;;25.65;20.08;;;10.80;99.90;;;;;;5014804;28;20038;-60
2023/01/07 03:19:18;;;;;;;22.27;19.88;;;10.80;99.90;;;;;;4991290;28;20472;-60
2023/01/07 03:21:46;;;;;;;23.77;19.58;;;10.80;99.90;;;;;;4962283;28;20045;-60
2023/01/07 03:24:14;;;;;;;22.48;19.20;;;10.70;99.90;;;;;;4978055;28;20541;-60
2023/01/07 03:26:45;;;;;;;27.00;19.13;;;10.80;99.90;;;;;;4991547;28;20042;-60
2023/01/07 03:29:13;;;;;;;25.02;19.38;;;10.80;99.90;;;;;;5025157;28;20050;-60
2023/01/07 03:32:04;;;;;;;23.45;20.75;;;10.80;99.90;;;;;;4984180;28;20092;-60
2023/01/07 03:34:33;;;;;;;24.35;19.95;;;10.80;99.90;;;;;;5000559;28;20108;-60
2023/01/07 03:37:03;;;;;;;21.33;19.00;;;10.80;99.90;;;;;;5020335;28;20054;-60
2023/01/07 03:39:32;;;;;;;23.60;18.02;;;10.80;99.90;;;;;;4964637;28;20085;-60
2023/01/07 03:44:42;;;;;;;;;;;10.80;99.90;;;;;;4988186;28;20038;-60
2023/01/07 03:47:09;;;;;;;24.33;18.55;;;10.80;99.90;;;;;;4978932;28;20321;-60
2023/01/07 03:49:35;;;;;;;24.35;18.20;;;10.80;99.90;;;;;;4975517;28;20031;-60
2023/01/07 03:52:01;;;;;;;21.85;19.45;;;10.80;99.90;;;;;;4999077;28;20038;-59
2023/01/07 03:54:27;;;;;;;21.63;18.50;;;10.80;99.90;;;;;;4973036;28;20539;-61
2023/01/07 03:56:53;;;;;;;22.40;17.35;;;10.80;99.90;;;;;;4954970;28;20053;-61
2023/01/07 03:59:18;;;;;;;21.52;18.60;;;10.80;99.90;;;;;;4963891;28;20050;-60
2023/01/07 04:01:44;;;;;;;21.75;18.13;;;10.80;99.90;;;;;;4950881;28;20034;-60
2023/01/07 04:04:10;;;;;;;23.42;19.65;;;10.80;99.90;;;;;;4989024;28;20374;-60
2023/01/07 04:06:36;;;;;;;21.23;18.38;;;10.80;99.90;;;;;;4982381;28;20081;-60
2023/01/07 04:09:02;;;;;;;21.88;18.85;;;10.80;99.90;;;;;;4982537;28;20457;-60
2023/01/07 04:11:27;;;;;;;25.67;19.27;;;10.80;99.90;;;;;;4975735;28;20045;-60
2023/01/07 04:13:53;;;;;;;23.02;19.48;;;10.80;99.90;;;;;;4982191;28;20133;-60
2023/01/07 04:16:19;;;;;;;23.58;19.02;;;10.80;99.90;;;;;;4968735;28;20043;-60
2023/01/07 04:18:44;;;;;;;23.27;19.92;;;10.80;99.90;;;;;;5000483;28;20042;-60
2023/01/07 04:21:10;;;;;;;24.83;19.08;;;10.70;99.90;;;;;;4978280;28;20039;-60
2023/01/07 04:23:36;;;;;;;24.20;19.50;;;10.80;99.90;;;;;;4984934;28;20038;-60
2023/01/07 04:26:02;;;;;;;25.00;19.95;;;10.70;99.90;;;;;;4985453;28;20113;-60
2023/01/07 04:28:27;;;;;;;23.92;19.75;;;10.70;99.90;;;;;;4992928;28;20042;-60
2023/01/07 04:30:53;;;;;;;25.67;20.17;;;10.70;99.90;;;;;;4989198;28;20457;-60
2023/01/07 04:33:19;;;;;;;27.17;20.17;;;10.70;99.90;;;;;;4991333;28;20361;-59
2023/01/07 04:35:45;;;;;;;24.30;19.77;;;10.70;99.90;;;;;;4987479;28;20080;-60
2023/01/07 04:38:11;;;;;;;26.65;20.75;;;10.70;99.90;;;;;;4976506;28;20421;-60
2023/01/07 04:40:37;;;;;;;26.92;21.00;;;10.60;99.90;;;;;;4970324;28;20231;-60
2023/01/07 04:43:03;;;;;;;24.52;20.27;;;10.60;99.90;;;;;;4963912;28;20384;-60
2023/01/07 04:45:29;;;;;;;23.90;19.35;;;10.60;99.90;;;;;;4984505;28;20460;-61
2023/01/07 04:47:55;;;;;;;25.52;19.80;;;10.60;99.90;;;;;;4962787;28;20039;-59
2023/01/07 04:50:21;;;;;;;25.77;19.85;;;10.60;99.90;;;;;;4979288;28;20401;-60
2023/01/07 04:52:47;;;;;;;30.90;21.70;;;10.60;99.90;;;;;;5014471;28;20039;-60
2023/01/07 04:55:13;;;;;;;24.15;20.30;;;10.60;99.90;;;;;;4983399;28;20069;-60
2023/01/07 04:57:39;;;;;;;25.05;19.92;;;10.60;99.90;;;;;;4995006;28;20038;-60
2023/01/07 05:00:06;;;;;;;27.83;21.27;;;10.50;99.90;;;;;;4996967;28;20045;-60
2023/01/07 05:02:32;;;;;;;30.77;21.50;;;10.50;99.90;;;;;;4992394;28;20034;-60
2023/01/07 05:04:58;;;;;;;27.20;20.20;;;10.60;99.90;;;;;;4989982;28;20515;-60
2023/01/07 05:07:23;;;;;;;27.20;21.00;;;10.60;99.90;;;;;;4976888;28;20144;-60
2023/01/07 05:09:49;;;;;;;28.25;21.55;;;10.50;99.90;;;;;;4987612;28;20140;-58
2023/01/07 05:12:15;;;;;;;25.38;19.45;;;10.60;99.90;;;;;;4982138;28;20403;-60
2023/01/07 05:14:41;;;;;;;31.90;20.48;;;10.60;99.90;;;;;;4962487;28;20140;-60
2023/01/07 05:17:06;;;;;;;30.92;20.85;;;10.60;99.90;;;;;;4978729;28;20049;-60
2023/01/07 05:19:32;;;;;;;27.50;21.42;;;10.60;99.90;;;;;;4978926;28;20189;-60
2023/01/07 05:21:58;;;;;;;27.75;20.80;;;10.60;99.90;;;;;;4943613;28;20081;-60
2023/01/07 05:24:23;;;;;;;27.77;21.48;;;10.60;99.90;;;;;;4975241;28;20038;-59
2023/01/07 05:26:49;;;;;;;26.90;20.40;;;10.60;99.90;;;;;;4979985;28;20054;-60
2023/01/07 05:29:15;;;;;;;26.88;20.17;;;10.60;99.90;;;;;;4997417;28;20113;-60
2023/01/07 05:31:41;;;;;;;27.23;20.58;;;10.60;99.90;;;;;;4976495;28;20050;-60
2023/01/07 05:34:06;;;;;;;26.58;20.90;;;10.60;99.90;;;;;;4963445;28;20038;-60
2023/01/07 05:36:32;;;;;;;27.00;19.83;;;10.60;99.90;;;;;;4959913;28;20363;-60
2023/01/07 05:38:58;;;;;;;27.67;20.67;;;10.60;99.90;;;;;;4978129;28;20320;-60
2023/01/07 05:41:24;;;;;;;24.23;19.45;;;10.50;99.90;;;;;;4977205;28;20069;-59
2023/01/07 05:43:49;;;;;;;27.30;19.65;;;10.50;99.90;;;;;;4998078;28;20369;-59
2023/01/07 05:46:15;;;;;;;26.30;19.05;;;10.50;99.90;;;;;;4982312;28;20517;-58
2023/01/07 05:48:41;;;;;;;24.98;18.75;;;10.50;99.90;;;;;;4980940;28;20079;-59
2023/01/07 05:51:07;;;;;;;25.88;19.45;;;10.50;99.90;;;;;;5002385;28;20049;-59
2023/01/07 05:53:32;;;;;;;25.05;19.02;;;10.40;99.90;;;;;;4965488;28;20097;-60
2023/01/07 05:55:59;;;;;;;27.25;18.88;;;10.40;99.90;;;;;;5003949;28;20053;-60
2023/01/07 05:58:27;;;;;;;27.88;18.95;;;10.40;99.90;;;;;;5001221;28;20113;-59
2023/01/07 06:00:53;;;;;;;27.52;18.70;;;10.40;99.90;;;;;;4982551;28;20413;-58
2023/01/07 06:03:20;;;;;;;24.08;18.27;;;10.30;99.90;;;;;;4982700;28;20047;-59
2023/01/07 06:05:46;;;;;;;27.25;17.45;;;10.30;99.90;;;;;;4969023;28;20046;-58
2023/01/07 06:08:12;;;;;;;22.45;17.83;;;10.30;99.90;;;;;;4992547;28;20541;-59
2023/01/07 06:10:43;;;;;;;24.52;17.98;;;10.30;99.90;;;;;;4989964;28;20121;-59
2023/01/07 06:13:08;;;;;;;24.33;18.40;;;10.20;99.90;;;;;;4983965;28;20599;-60
2023/01/07 06:15:34;;;;;;;25.52;17.02;;;10.20;99.90;;;;;;4980665;28;20069;-59
2023/01/07 06:18:00;;;;;;;20.77;16.98;;;10.20;99.90;;;;;;4978482;28;20080;-59
2023/01/07 06:20:28;;;;;;;22.90;16.92;;;10.20;99.90;;;;;;4985161;23;20483;-62
2023/01/07 06:22:54;;;;;;;25.10;16.83;;;10.20;99.90;;;;;;5013224;28;20041;-62
2023/01/07 06:25:20;;;;;;;19.15;15.48;;;10.20;99.90;;;;;;5007983;28;20037;-62
2023/01/07 06:27:46;;;;;;;19.67;15.45;;;10.20;99.90;;;;;;4999873;28;22065;-61
2023/01/07 06:30:11;;;;;;;22.08;16.48;;;10.20;99.90;;;;;;4996084;28;20081;-62
2023/01/07 06:32:41;;;;;;;24.05;16.92;;;10.20;99.90;;;;;;4998274;28;20547;-62
2023/01/07 06:35:10;;;;;;;21.58;16.77;;;10.20;99.90;;;;;;5000845;28;20045;-61
2023/01/07 06:37:36;;;;;;;19.45;16.17;;;10.20;99.90;;;;;;4999009;28;20116;-62
2023/01/07 06:40:02;;;;;;;19.98;14.75;;;10.10;99.90;;;;;;5016556;28;20444;-62
2023/01/07 06:42:28;;;;;;;21.20;15.77;;;10.10;99.90;;;;;;4999520;28;20038;-61
2023/01/07 06:44:54;;;;;;;21.55;14.93;;;10.10;99.90;;;;;;5002263;28;20578;-62
2023/01/07 06:47:20;;;;;;;19.42;15.00;;;10.10;99.90;;;;;;4996525;28;20113;-61
2023/01/07 06:49:46;;;;;;;19.27;13.85;;;10.10;99.90;;;;;;4997466;28;20042;-62
2023/01/07 06:52:11;;;;;;;21.33;14.35;;;10.10;99.90;;;;;;5000812;28;20490;-61
2023/01/07 06:54:37;;;;;;;19.75;14.57;;;10.10;99.90;;;;;;5009685;28;20037;-62
2023/01/07 06:57:03;;;;;;;22.35;14.65;;;10.10;99.90;;;;;;4980055;28;20045;-62
2023/01/07 06:59:28;;;;;;;21.92;15.35;;;10.10;99.90;;;;;;5007974;28;20093;-61
2023/01/07 07:01:54;;;;;;;24.83;15.10;;;10.20;99.90;;;;;;5004105;28;20042;-61
2023/01/07 07:04:20;;;;;;;19.17;13.68;;;10.10;99.90;;;;;;4985123;28;20409;-62
2023/01/07 07:06:46;;;;;;;21.95;14.25;;;10.10;99.90;;;;;;4985583;28;20204;-61
2023/01/07 07:09:12;;;;;;;17.90;14.23;;;10.10;99.90;;;;;;5007123;28;20501;-62
2023/01/07 07:11:37;;;;;;;19.80;14.45;;;10.10;99.90;;;;;;5007038;28;20038;-62
2023/01/07 07:14:03;;;;;;;22.85;14.07;;;10.10;99.90;;;;;;5005260;28;20048;-62
2023/01/07 07:16:29;;;;;;;19.50;14.52;;;10.10;99.90;;;;;;5001313;28;20038;-63
2023/01/07 07:18:55;;;;;;;19.27;14.07;;;10.00;99.90;;;;;;5001660;28;20045;-62
2023/01/07 07:21:20;;;;;;;18.83;13.82;;;10.10;99.90;;;;;;4992990;28;20359;-61
2023/01/07 07:23:46;;;;;;;17.55;13.68;;;10.10;99.90;;;;;;4997666;28;20046;-62
2023/01/07 07:26:12;;;;;;;19.48;12.85;;;10.10;99.90;;;;;;5001465;28;20052;-62
2023/01/07 07:28:41;;;;;;;17.20;13.02;;;10.10;99.90;;;;;;5002942;28;20045;-62
2023/01/07 07:31:08;;;;;;;15.32;13.70;;;10.10;99.90;;;;;;4998143;28;20038;-61
2023/01/07 07:33:34;;;;;;;17.73;12.75;;;10.10;99.90;;;;;;4993532;28;20151;-62
2023/01/07 07:36:00;;;;;;;19.38;12.88;;;10.10;99.90;;;;;;4996543;28;20056;-61
2023/01/07 07:38:26;;;;;;;21.33;12.27;;;10.10;99.90;;;;;;5004568;28;20493;-62
2023/01/07 07:40:51;;;;;;;16.42;12.20;;;10.10;99.90;;;;;;5005158;28;20056;-62
2023/01/07 07:43:17;;;;;;;19.67;13.38;;;10.00;99.90;;;;;;5000109;28;20485;-62
2023/01/07 07:45:43;;;;;;;17.50;12.27;;;10.00;99.90;;;;;;4987344;28;20042;-61
2023/01/07 07:48:12;;;;;;;14.75;11.35;;;10.00;99.90;;;;;;5008395;28;20416;-62
2023/01/07 07:50:37;;;;;;;14.55;11.18;;;10.00;99.90;;;;;;5005176;28;20045;-62
2023/01/07 07:53:03;;;;;;;15.50;10.27;;;10.00;99.90;;;;;;5003761;28;20037;-61
2023/01/07 07:55:29;;;;;;;15.05;10.93;;;10.00;99.90;;;;;;5017934;28;20038;-61
2023/01/07 07:57:57;;;;;;;14.05;11.00;;;10.00;99.90;;;;;;5000131;28;20485;-61
2023/01/07 08:00:23;;;;;;;14.35;10.77;;;10.00;99.90;;;;;;4983535;28;20050;-62
2023/01/07 08:02:49;;;;;;;13.48;10.07;;;10.00;99.90;;;;;;4983124;28;20030;-62
2023/01/07 08:05:17;;;;;;;13.52;9.40;;;10.00;99.90;;;;;;5003537;28;20438;-61
2023/01/07 08:07:43;;;;;;;13.35;9.65;;;10.00;99.90;;;;;;5007243;28;20057;-61
2023/01/07 08:10:09;;;;;;;13.80;9.70;;;10.00;99.90;;;;;;5018683;28;20052;-62
2023/01/07 08:12:38;;;;;;;12.85;9.38;;;10.00;99.90;;;;;;4981896;28;20041;-61
2023/01/07 08:15:05;;;;;;;16.75;9.45;;;10.00;99.90;;;;;;4984390;28;20050;-62
2023/01/07 08:17:31;;;;;;;12.65;8.55;;;10.00;99.90;;;;;;5004275;28;20042;-62
2023/01/07 08:19:57;;;;;;;17.13;10.73;;;10.00;99.90;;;;;;4999961;28;20030;-61
2023/01/07 08:22:22;;;;;;;10.95;8.27;;;10.00;99.90;;;;;;5002106;28;20045;-62
2023/01/07 08:24:48;;;;;;;10.75;8.88;;;10.00;99.90;;;;;;5000480;28;20145;-62
2023/01/07 08:27:14;;;;;;;10.50;8.75;;;10.00;99.90;;;;;;5001379;28;20360;-62
2023/01/07 08:29:39;;;;;;;11.93;8.90;;;10.00;99.90;;;;;;4981455;28;20042;-61
2023/01/07 08:32:05;;;;;;;11.48;8.32;;;10.00;99.90;;;;;;5004024;28;20042;-61
2023/01/07 08:34:31;;;;;;;12.50;8.70;;;10.00;99.90;;;;;;4972370;28;20037;-61
2023/01/07 08:36:57;;;;;;;11.25;8.57;;;9.90;99.90;;;;;;5000284;28;20045;-61
2023/01/07 08:39:22;;;;;;;13.52;8.38;;;9.90;99.90;;;;;;4985746;28;20053;-61
2023/01/07 08:41:48;;;;;;;11.30;8.50;;;9.90;99.90;;;;;;5003946;28;20075;-61
2023/01/07 08:44:14;;;;;;;12.50;8.20;;;9.90;99.90;;;;;;4999891;28;20045;-62
2023/01/07 08:46:41;;;;;;;11.73;7.65;;;9.90;99.90;;;;;;5000863;28;20042;-61
2023/01/07 08:49:09;;;;;;;14.68;8.23;;;9.90;99.90;;;;;;4999285;28;20041;-61
2023/01/07 08:51:36;;;;;;;10.48;7.72;;;10.00;99.90;;;;;;4987468;28;20104;-62
2023/01/07 08:54:02;;;;;;;11.88;7.72;;;10.00;99.90;;;;;;4999842;28;20042;-61
2023/01/07 08:56:27;;;;;;;12.38;7.10;;;10.00;99.90;;;;;;5004980;28;20034;-61
2023/01/07 08:58:53;;;;;;;11.13;7.05;;;10.00;99.90;;;;;;5000941;28;20099;-61
2023/01/07 09:01:19;;;;;;;10.68;6.97;;;10.00;99.90;;;;;;5000744;28;20061;-61
2023/01/07 09:03:45;;;;;;;10.60;7.40;;;10.00;99.90;;;;;;4996231;28;20495;-61
2023/01/07 09:06:11;;;;;;;12.63;7.32;;;10.00;99.90;;;;;;4984515;28;20049;-62
2023/01/07 09:08:37;;;;;;;12.57;7.07;;;10.00;99.90;;;;;;4994720;28;20068;-61
2023/01/07 09:11:03;;;;;;;9.38;6.45;;;10.00;99.90;;;;;;5013832;28;20056;-61
2023/01/07 09:13:28;;;;;;;9.35;6.63;;;10.00;99.90;;;;;;5019564;28;20042;-61
2023/01/07 09:15:54;;;;;;;14.63;6.32;;;10.00;99.90;;;;;;5013942;28;20132;-61
2023/01/07 09:18:20;;;;;;;8.48;6.22;;;10.00;99.90;;;;;;5001450;28;20421;-61
2023/01/07 09:20:46;;;;;;;9.15;6.15;;;10.00;99.90;;;;;;4965737;28;20440;-61
2023/01/07 09:23:11;;;;;;;13.15;5.90;;;10.00;99.90;;;;;;5001222;28;20050;-61
2023/01/07 09:25:37;;;;;;;8.32;5.20;;;10.10;99.90;;;;;;5000503;28;20065;-61
2023/01/07 09:28:03;;;;;;;11.15;5.50;;;10.10;99.90;;;;;;4997135;28;20041;-61
2023/01/07 09:30:29;;;;;;;10.45;5.82;;;10.10;99.90;;;;;;4975353;28;20553;-61
2023/01/07 09:32:55;;;;;;;8.25;5.38;;;10.10;99.90;;;;;;4993629;28;20049;-61
2023/01/07 09:35:20;;;;;;;7.47;5.28;;;10.10;99.90;;;;;;4978372;28;20041;-61
2023/01/07 09:37:46;;;;;;;7.40;4.97;;;10.10;99.90;;;;;;4998818;28;20693;-61
2023/01/07 09:40:36;;;;;;;7.47;4.97;;;10.10;99.90;;;;;;5001934;28;20084;-61
2023/01/07 09:43:21;;;;;;;7.03;4.47;;;10.10;99.90;;;;;;4998270;28;20123;-62
2023/01/07 09:45:54;;;;;;;9.27;4.40;;;10.10;99.90;;;;;;4998612;28;20093;-61
2023/01/07 09:48:28;;;;;;;7.85;4.53;;;10.10;99.90;;;;;;4983549;28;20052;-61
2023/01/07 09:51:03;;;;;;;8.82;5.28;;;10.10;99.90;;;;;;4994482;28;20045;-62
2023/01/07 09:53:32;;;;;;;7.47;4.03;;;10.10;99.90;;;;;;5000260;28;20053;-61
2023/01/07 09:55:59;;;;;;;5.68;3.72;;;10.10;99.90;;;;;;5008643;28;20146;-62
2023/01/07 09:58:25;;;;;;;6.35;4.15;;;10.20;99.90;;;;;;5001547;28;20038;-61
2023/01/07 10:01:02;;;;;;;4.82;3.50;;;10.20;99.90;;;;;;5000223;28;20124;-61
2023/01/07 10:03:52;;;;;;;8.75;3.72;;;10.20;99.90;;;;;;4999741;28;20037;-61
2023/01/07 10:06:23;;;;;;;7.38;3.65;;;10.20;99.90;;;;;;5001535;28;20137;-61
2023/01/07 10:09:07;;;;;;;6.43;3.75;;;10.20;99.90;;;;;;5000474;28;20040;-61
2023/01/07 10:11:48;;;;;;;4.97;3.47;;;10.30;99.90;;;;;;4997642;28;20100;-62
2023/01/07 10:14:28;;;;;;;6.25;3.33;;;10.30;99.90;;;;;;5000676;28;20156;-61
2023/01/07 10:17:00;;;;;;;7.22;3.40;;;10.30;99.90;;;;;;5000278;28;20029;-61
2023/01/07 10:19:44;;;;;;;4.38;3.10;;;10.30;99.90;;;;;;4996821;28;20046;-61
2023/01/07 10:22:29;;;;;;;4.88;2.90;;;10.30;99.90;;;;;;4993362;28;20045;-61
2023/01/07 10:25:21;;;;;;;4.57;3.08;;;10.40;99.90;;;;;;4998575;28;20295;-62
2023/01/07 10:27:49;;;;;;;4.80;2.80;;;10.30;99.90;;;;;;4976266;28;20129;-61
2023/01/07 10:30:23;;;;;;;5.90;3.65;;;10.30;99.90;;;;;;4997997;28;20129;-61
2023/01/07 10:32:58;;;;;;;6.45;3.28;;;10.30;99.90;;;;;;5001515;28;20048;-61
2023/01/07 10:35:29;;;;;;;4.75;3.03;;;10.30;99.90;;;;;;5001291;28;20038;-61
2023/01/07 10:37:58;;;;;;;6.65;3.50;;;10.30;99.90;;;;;;4999503;28;20140;-61
2023/01/07 10:40:39;;;;;;;6.63;3.33;;;10.40;99.90;;;;;;4998983;28;20535;-61
2023/01/07 10:43:35;;;;;;;7.28;3.22;;;10.40;99.90;;;;;;5001908;28;20037;-61
2023/01/07 10:46:04;;;;;;;6.70;2.78;;;10.40;99.90;;;;;;5017861;28;20038;-61
2023/01/07 10:48:32;;;;;;;5.57;3.35;;;10.40;99.90;;;;;;4997397;28;20392;-60
2023/01/07 10:51:01;;;;;;;6.18;3.22;;;10.50;99.90;;;;;;5006217;28;20037;-61
2023/01/07 10:53:39;;;;;;;7.25;2.88;;;10.50;99.90;;;;;;5004454;28;20080;-61
2023/01/07 10:56:31;;;;;;;5.82;3.30;;;10.50;99.90;;;;;;5004896;28;20046;-62
2023/01/07 10:58:57;;;;;;;6.70;2.78;;;10.50;99.90;;;;;;5001796;28;20048;-61
2023/01/07 11:01:26;;;;;;;4.57;2.30;;;10.50;99.90;;;;;;4987930;28;20065;-61
2023/01/07 11:03:54;;;;;;;5.97;2.55;;;10.60;99.90;;;;;;4984786;28;20117;-61
2023/01/07 11:06:40;;;;;;;5.43;2.38;;;10.60;99.90;;;;;;5018401;28;20404;-62
2023/01/07 11:09:12;;;;;;;6.95;2.97;;;10.70;99.90;;;;;;5003008;28;20050;-60
2023/01/07 11:11:39;;;;;;;5.65;3.03;;;10.80;99.90;;;;;;4997379;28;20727;-61
2023/01/07 11:14:18;;;;;;;4.18;2.45;;;10.90;99.90;;;;;;4977472;28;20050;-61
2023/01/07 11:16:51;;;;;;;5.53;2.50;;;10.90;99.90;;;;;;5002576;28;20050;-61
2023/01/07 11:19:17;;;;;;;5.90;2.40;;;11.00;99.90;;;;;;4983669;28;20109;-60
2023/01/07 11:21:45;;;;;;;4.93;2.10;;;11.00;99.90;;;;;;5001663;28;20530;-61
2023/01/07 11:24:32;;;;;;;3.88;2.03;;;11.00;99.90;;;;;;5004986;28;20046;-61
2023/01/07 11:27:14;;;;;;;3.65;2.00;;;11.00;99.90;;;;;;4989056;28;20049;-60
2023/01/07 11:30:04;;;;;;;4.45;2.72;;;11.00;99.90;;;;;;5003466;28;20057;-61
2023/01/07 11:32:32;;;;;;;3.45;2.10;;;11.00;99.90;;;;;;5005898;28;20042;-61
2023/01/07 11:35:03;;;;;;;4.15;2.33;;;11.10;99.90;;;;;;5002131;28;20141;-61
2023/01/07 11:37:37;;;;;;;5.25;2.22;;;11.00;99.90;;;;;;5001174;28;20056;-61
2023/01/07 11:40:12;;;;;;;4.25;2.67;;;11.00;99.90;;;;;;5002821;28;20053;-60
2023/01/07 11:42:53;;;;;;;5.85;3.25;;;11.00;99.90;;;;;;4980265;28;20125;-61
2023/01/07 11:45:21;;;;;;;4.70;2.38;;;11.00;99.90;;;;;;4998903;28;20926;-61
2023/01/07 11:48:15;;;;;;;4.50;2.25;;;11.00;99.90;;;;;;4997298;28;20346;-61
2023/01/07 11:50:53;;;;;;;7.15;3.03;;;11.00;99.90;;;;;;4995420;28;20092;-61
2023/01/07 11:53:47;;;;;;;5.07;2.55;;;10.70;99.90;;;;;;5018927;28;20038;-61
2023/01/07 11:56:19;;;;;;;4.45;2.15;;;10.90;99.90;;;;;;5004685;28;20034;-61
2023/01/07 11:58:47;;;;;;;4.22;2.10;;;11.00;99.90;;;;;;5002773;28;20464;-61
2023/01/07 12:01:19;;;;;;;5.07;1.65;;;11.00;99.90;;;;;;4999087;28;20548;-62
2023/01/07 12:03:51;;;;;;;4.30;2.10;;;11.00;99.90;;;;;;5003025;28;20496;-61
2023/01/07 12:06:39;;;;;;;3.70;2.05;;;11.00;99.90;;;;;;5003287;28;20509;-61
2023/01/07 12:09:35;;;;;;;3.53;1.95;;;11.10;99.90;;;;;;5005058;28;20527;-61
2023/01/07 12:12:30;;;;;;;4.68;1.75;;;11.00;99.90;;;;;;4999310;28;20409;-61
2023/01/07 12:14:55;;;;;;;2.58;1.55;;;11.10;99.90;;;;;;5004062;28;20048;-61
2023/01/07 12:17:23;;;;;;;3.67;1.50;;;11.10;99.90;;;;;;4986223;28;20042;-60
2023/01/07 12:22:27;;;;;;;2.22;1.50;;;11.10;99.90;;;;;;5021937;28;20053;-64
2023/01/07 12:25:05;;;;;;;3.70;1.70;;;11.10;99.90;;;;;;5009745;28;20052;-63
2023/01/07 12:27:57;;;;;;;2.35;1.30;;;11.10;99.90;;;;;;5001693;28;20037;-63
2023/01/07 12:30:33;;;;;;;3.20;1.55;;;11.20;99.90;;;;;;4988871;28;20440;-63
2023/01/07 12:33:08;;;;;;;2.45;1.48;;;11.20;99.90;;;;;;5023590;28;20037;-63
2023/01/07 12:35:41;;;;;;;3.17;1.50;;;11.30;99.90;;;;;;5027319;28;20045;-64
2023/01/07 12:38:45;;;;;;;3.53;1.77;;;11.30;99.90;;;;;;5006826;28;20400;-63
2023/01/07 12:41:18;;;;;;;1.90;1.23;;;11.30;99.90;;;;;;5024963;28;20300;-64
2023/01/07 12:43:59;;;;;;;4.00;1.23;;;11.30;99.90;;;;;;5022907;28;20108;-64
2023/01/07 12:46:31;;;;;;;2.40;1.48;;;11.30;99.90;;;;;;5026911;28;20322;-63
2023/01/07 12:49:09;;;;;;;2.92;1.30;;;11.30;99.90;;;;;;5008704;28;20115;-62
2023/01/07 12:51:51;;;;;;;3.22;1.52;;;11.30;99.90;;;;;;5022418;28;20102;-64
2023/01/07 12:54:32;;;;;;;1.80;1.10;;;11.30;99.90;;;;;;5009592;28;20045;-63